createdAt,value
2022-08-28T00:02:56.487Z,95.64
2022-08-28T00:05:59.721Z,95.11
2022-08-28T00:09:01.768Z,94.76
2022-08-28T00:12:04.980Z,95.60
2022-08-28T00:15:11.913Z,95.58
2022-08-28T00:18:15.022Z,95.94
2022-08-28T00:21:17.094Z,97.29
2022-08-28T00:24:19.106Z,97.73
2022-08-28T00:27:21.122Z,97.89
2022-08-28T00:30:33.644Z,98.10
2022-08-28T00:33:35.672Z,97.63
2022-08-28T00:36:38.673Z,97.52
2022-08-28T00:39:40.698Z,96.74
2022-08-28T00:42:42.944Z,96.52
2022-08-28T00:45:45.012Z,97.42
2022-08-28T00:48:47.255Z,98.38
2022-08-28T00:51:51.268Z,98.88
2022-08-28T00:55:03.565Z,98.24
2022-08-28T00:58:05.638Z,99.36
2022-08-28T01:01:09.004Z,99.56
2022-08-28T01:04:16.819Z,99.16
2022-08-28T01:07:19.331Z,99.26
2022-08-28T01:10:23.928Z,99.41
2022-08-28T01:13:27.615Z,99.21
2022-08-28T01:16:33.712Z,98.57
2022-08-28T01:19:40.772Z,97.51
2022-08-28T01:22:51.552Z,96.61
2022-08-28T01:25:54.120Z,96.13
2022-08-28T01:28:58.338Z,97.04
2022-08-28T01:32:00.387Z,96.53
2022-08-28T01:35:03.776Z,96.73
2022-08-28T01:38:05.870Z,96.99
2022-08-28T01:41:08.166Z,98.02
2022-08-28T01:44:10.203Z,98.54
2022-08-28T01:47:12.240Z,98.81
2022-08-28T01:50:17.660Z,99.44
2022-08-28T01:53:24.889Z,100.00
2022-08-28T01:56:27.167Z,100.00
2022-08-28T01:59:29.179Z,100.00
2022-08-28T02:02:31.184Z,100.00
2022-08-28T02:05:33.637Z,100.00
2022-08-28T02:08:36.499Z,100.00
2022-08-28T02:11:38.952Z,100.00
2022-08-28T02:14:44.675Z,100.00
2022-08-28T02:17:46.759Z,100.00
2022-08-28T02:20:48.760Z,100.00
2022-08-28T02:23:50.916Z,100.00
2022-08-28T02:26:52.933Z,100.00
2022-08-28T02:29:54.999Z,100.00
2022-08-28T02:32:57.037Z,100.00
2022-08-28T02:35:59.044Z,100.00
2022-08-28T02:39:01.073Z,100.00
2022-08-28T02:42:03.538Z,100.00
2022-08-28T02:45:06.645Z,100.00
2022-08-28T02:48:15.600Z,100.00
2022-08-28T02:51:19.501Z,100.00
2022-08-28T02:54:21.500Z,100.00
2022-08-28T02:57:23.525Z,100.00
2022-08-28T03:00:26.416Z,100.00
2022-08-28T03:03:29.744Z,100.00
2022-08-28T03:06:32.598Z,100.00
2022-08-28T03:09:34.762Z,100.00
2022-08-28T03:12:37.719Z,100.00
2022-08-28T03:15:39.719Z,100.00
2022-08-28T03:18:42.087Z,100.00
2022-08-28T03:21:44.121Z,100.00
2022-08-28T03:24:46.112Z,100.00
2022-08-28T03:27:48.632Z,100.00
2022-08-28T03:30:50.733Z,100.00
2022-08-28T03:33:53.773Z,100.00
2022-08-28T03:36:55.798Z,100.00
2022-08-28T03:39:57.895Z,100.00
2022-08-28T03:42:59.896Z,100.00
2022-08-28T03:46:04.203Z,100.00
2022-08-28T03:49:06.257Z,100.00
2022-08-28T03:52:08.445Z,100.00
2022-08-28T03:55:12.342Z,100.00
2022-08-28T03:58:18.927Z,100.00
2022-08-28T04:01:22.002Z,100.00
2022-08-28T04:04:24.046Z,100.00
2022-08-28T04:07:26.129Z,100.00
2022-08-28T04:10:28.882Z,100.00
2022-08-28T04:13:31.357Z,100.00
2022-08-28T04:16:33.425Z,100.00
2022-08-28T04:19:35.607Z,100.00
2022-08-28T04:22:37.704Z,100.00
2022-08-28T04:25:40.604Z,100.00
2022-08-28T04:28:43.042Z,100.00
2022-08-28T04:31:45.100Z,100.00
2022-08-28T04:34:47.181Z,100.00
2022-08-28T04:37:49.194Z,100.00
2022-08-28T04:40:51.205Z,100.00
2022-08-28T04:43:53.340Z,100.00
2022-08-28T04:46:55.376Z,100.00
2022-08-28T04:49:59.929Z,100.00
2022-08-28T04:53:01.940Z,100.00
2022-08-28T04:56:09.671Z,100.00
2022-08-28T04:59:12.163Z,100.00
2022-08-28T05:02:14.237Z,100.00
2022-08-28T05:05:16.388Z,100.00
2022-08-28T05:08:22.072Z,100.00
2022-08-28T05:11:34.022Z,100.00
2022-08-28T05:14:36.748Z,100.00
2022-08-28T05:17:38.769Z,100.00
2022-08-28T05:20:43.941Z,100.00
2022-08-28T05:23:47.815Z,100.00
2022-08-28T05:26:49.978Z,100.00
2022-08-28T05:29:52.377Z,100.00
2022-08-28T05:32:54.408Z,100.00
2022-08-28T05:35:57.550Z,100.00
2022-08-28T05:39:00.396Z,97.54
2022-08-28T05:42:02.478Z,95.51
2022-08-28T05:45:07.994Z,94.58
2022-08-28T05:48:10.131Z,92.58
2022-08-28T05:51:16.555Z,91.66
2022-08-28T05:54:18.554Z,91.97
2022-08-28T05:57:20.585Z,92.68
2022-08-28T06:00:22.604Z,92.77
2022-08-28T06:03:24.626Z,91.98
2022-08-28T06:06:28.999Z,89.33
2022-08-28T06:09:31.667Z,88.99
2022-08-28T06:12:33.677Z,89.87
2022-08-28T06:15:41.991Z,89.48
2022-08-28T06:18:43.982Z,88.09
2022-08-28T06:21:46.037Z,87.18
2022-08-28T06:24:48.037Z,87.79
2022-08-28T06:27:51.082Z,87.22
2022-08-28T06:31:22.989Z,87.43
2022-08-28T06:34:17.166Z,86.74
2022-08-28T06:37:19.165Z,84.91
2022-08-28T06:40:21.231Z,82.47
2022-08-28T06:43:26.804Z,82.14
2022-08-28T06:46:28.880Z,80.54
2022-08-28T06:49:30.873Z,80.06
2022-08-28T06:52:32.882Z,77.60
2022-08-28T06:55:35.340Z,76.00
2022-08-28T06:58:40.506Z,76.61
2022-08-28T07:01:42.660Z,78.37
2022-08-28T07:04:44.699Z,78.72
2022-08-28T07:07:46.732Z,77.05
2022-08-28T07:10:48.728Z,74.49
2022-08-28T07:13:51.707Z,72.94
2022-08-28T07:16:53.686Z,69.02
2022-08-28T07:19:55.742Z,62.61
2022-08-28T07:22:59.722Z,66.42
2022-08-28T07:26:07.577Z,67.79
2022-08-28T07:29:11.427Z,61.73
2022-08-28T07:32:13.769Z,58.72
2022-08-28T07:35:17.019Z,57.00
2022-08-28T07:38:19.966Z,59.56
2022-08-28T07:41:24.942Z,61.60
2022-08-28T07:44:27.049Z,63.04
2022-08-28T07:47:30.521Z,60.32
2022-08-28T07:50:32.544Z,56.13
2022-08-28T07:53:36.592Z,50.90
2022-08-28T07:56:38.841Z,50.94
2022-08-28T07:59:42.820Z,53.21
2022-08-28T08:02:44.901Z,56.68
2022-08-28T08:05:55.447Z,58.59
2022-08-28T08:08:57.713Z,61.01
2022-08-28T08:11:59.971Z,63.34
2022-08-28T08:15:02.242Z,58.57
2022-08-28T08:18:04.333Z,53.20
2022-08-28T08:21:12.629Z,51.84
2022-08-28T08:24:20.050Z,47.77
2022-08-28T08:27:22.160Z,49.38
2022-08-28T08:30:24.177Z,52.78
2022-08-28T08:33:26.201Z,55.88
2022-08-28T08:36:29.187Z,52.61
2022-08-28T08:39:32.382Z,46.99
2022-08-28T08:42:34.816Z,50.26
2022-08-28T08:45:38.827Z,55.44
2022-08-28T08:48:44.296Z,57.11
2022-08-28T08:52:15.201Z,56.82
2022-08-28T08:55:35.526Z,56.86
2022-08-28T08:58:43.304Z,58.77
2022-08-28T09:02:20.691Z,58.73
2022-08-28T09:05:46.922Z,55.88
2022-08-28T09:08:56.889Z,54.69
2022-08-28T09:12:05.731Z,56.50
2022-08-28T09:15:17.161Z,56.98
2022-08-28T09:18:26.253Z,61.29
2022-08-28T09:21:38.555Z,60.59
2022-08-28T09:24:40.919Z,62.24
2022-08-28T09:27:46.451Z,63.42
2022-08-28T09:30:57.886Z,63.75
2022-08-28T09:34:24.749Z,60.49
2022-08-28T09:37:28.349Z,57.97
2022-08-28T09:40:32.282Z,56.52
2022-08-28T09:43:36.246Z,51.24
2022-08-28T09:46:38.396Z,48.17
2022-08-28T09:49:40.424Z,44.51
2022-08-28T09:52:42.493Z,43.42
2022-08-28T09:56:05.339Z,44.32
2022-08-28T09:59:17.021Z,50.69
2022-08-28T10:02:36.416Z,50.41
2022-08-28T10:05:47.322Z,49.25
2022-08-28T10:09:13.974Z,52.94
2022-08-28T10:12:49.450Z,54.59
2022-08-28T10:16:03.529Z,55.96
2022-08-28T10:19:27.547Z,57.28
2022-08-28T10:22:36.222Z,57.49
2022-08-28T10:25:49.849Z,58.54
2022-08-28T10:29:14.845Z,58.69
2022-08-28T10:32:50.851Z,60.01
2022-08-28T10:36:00.150Z,58.75
2022-08-28T10:39:43.734Z,51.83
2022-08-28T10:42:53.994Z,48.18
2022-08-28T10:46:09.729Z,46.60
2022-08-28T10:49:34.334Z,44.46
2022-08-28T10:52:41.725Z,41.39
2022-08-28T10:56:08.451Z,41.40
2022-08-28T10:59:10.500Z,44.01
2022-08-28T11:02:13.792Z,49.95
2022-08-28T11:05:24.262Z,51.75
2022-08-28T11:08:32.583Z,53.91
2022-08-28T11:11:47.859Z,49.24
2022-08-28T11:14:50.737Z,47.62
2022-08-28T11:17:55.674Z,43.05
2022-08-28T11:21:33.050Z,44.04
2022-08-28T11:24:35.039Z,45.96
2022-08-28T11:27:38.759Z,47.48
2022-08-28T11:30:42.321Z,48.73
2022-08-28T11:33:44.173Z,48.34
2022-08-28T11:36:46.046Z,48.75
2022-08-28T11:39:48.091Z,46.80
2022-08-28T11:42:50.135Z,49.70
2022-08-28T11:45:55.095Z,49.05
2022-08-28T11:49:00.020Z,47.14
2022-08-28T11:52:16.897Z,46.26
2022-08-28T11:55:27.374Z,46.54
2022-08-28T11:58:56.688Z,50.61
2022-08-28T12:02:34.054Z,48.89
2022-08-28T12:05:41.033Z,45.39
2022-08-28T12:08:49.158Z,46.74
2022-08-28T12:11:56.760Z,46.41
2022-08-28T12:15:01.437Z,46.47
2022-08-28T12:18:13.602Z,42.66
2022-08-28T12:21:24.532Z,41.56
2022-08-28T12:24:27.265Z,44.14
2022-08-28T12:27:35.992Z,47.82
2022-08-28T12:30:53.578Z,50.17
2022-08-28T12:34:08.140Z,48.40
2022-08-28T12:37:52.347Z,44.84
2022-08-28T12:40:54.916Z,43.10
2022-08-28T12:43:59.678Z,44.18
2022-08-28T12:47:01.744Z,46.72
2022-08-28T12:50:23.856Z,49.79
2022-08-28T12:53:25.935Z,50.25
2022-08-28T12:56:33.147Z,50.96
2022-08-28T12:59:38.491Z,51.13
2022-08-28T13:02:41.286Z,50.20
2022-08-28T13:05:43.408Z,49.66
2022-08-28T13:08:48.693Z,50.06
2022-08-28T13:11:51.380Z,51.30
2022-08-28T13:14:53.383Z,50.64
2022-08-28T13:17:55.431Z,48.17
2022-08-28T13:21:13.121Z,45.94
2022-08-28T13:24:20.806Z,45.67
2022-08-28T13:27:24.042Z,43.75
2022-08-28T13:30:32.285Z,44.23
2022-08-28T13:33:34.334Z,40.78
2022-08-28T13:36:48.846Z,40.26
2022-08-28T13:39:50.858Z,43.09
2022-08-28T13:42:58.144Z,41.86
2022-08-28T13:46:00.295Z,42.99
2022-08-28T13:49:02.324Z,44.83
2022-08-28T13:52:07.379Z,45.85
2022-08-28T13:55:12.468Z,46.76
2022-08-28T13:58:14.491Z,44.02
2022-08-28T14:01:22.476Z,41.05
2022-08-28T14:04:32.633Z,43.23
2022-08-28T14:07:34.657Z,45.26
2022-08-28T14:10:36.672Z,46.03
2022-08-28T14:13:38.732Z,45.33
2022-08-28T14:16:40.858Z,44.76
2022-08-28T14:19:42.901Z,45.54
2022-08-28T14:22:45.044Z,45.74
2022-08-28T14:25:47.381Z,45.59
2022-08-28T14:28:49.429Z,47.89
2022-08-28T14:31:51.498Z,47.85
2022-08-28T14:34:53.614Z,46.72
2022-08-28T14:37:56.308Z,46.96
2022-08-28T14:40:58.332Z,46.51
2022-08-28T14:44:01.183Z,47.89
2022-08-28T14:47:03.200Z,49.06
2022-08-28T14:50:06.215Z,49.81
2022-08-28T14:53:08.930Z,49.78
2022-08-28T14:56:11.188Z,49.36
2022-08-28T14:59:23.770Z,47.73
2022-08-28T15:02:26.320Z,47.01
2022-08-28T15:05:28.333Z,45.69
2022-08-28T15:08:30.828Z,45.93
2022-08-28T15:11:32.886Z,47.45
2022-08-28T15:14:35.827Z,46.84
2022-08-28T15:17:37.845Z,47.03
2022-08-28T15:20:42.462Z,47.70
2022-08-28T15:23:44.724Z,49.39
2022-08-28T15:26:46.983Z,49.17
2022-08-28T15:29:49.000Z,48.48
2022-08-28T15:32:51.021Z,48.87
2022-08-28T15:35:56.593Z,46.47
2022-08-28T15:38:58.621Z,46.17
2022-08-28T15:42:01.268Z,46.46
2022-08-28T15:45:03.483Z,46.66
2022-08-28T15:48:05.577Z,44.99
2022-08-28T15:51:07.590Z,45.66
2022-08-28T15:54:09.603Z,46.17
2022-08-28T15:57:11.632Z,45.77
2022-08-28T16:00:14.256Z,46.97
2022-08-28T16:03:16.264Z,47.65
2022-08-28T16:06:23.225Z,47.71
2022-08-28T16:09:25.273Z,48.75
2022-08-28T16:12:27.289Z,49.40
2022-08-28T16:15:29.300Z,49.04
2022-08-28T16:18:31.333Z,49.19
2022-08-28T16:21:33.488Z,49.44
2022-08-28T16:24:36.012Z,49.80
2022-08-28T16:27:38.016Z,49.05
2022-08-28T16:30:43.956Z,49.74
2022-08-28T16:33:46.467Z,50.52
2022-08-28T16:36:48.502Z,49.99
2022-08-28T16:39:54.281Z,51.64
2022-08-28T16:42:56.648Z,51.67
2022-08-28T16:45:58.679Z,51.35
2022-08-28T16:49:00.717Z,52.12
2022-08-28T16:52:02.982Z,52.60
2022-08-28T16:55:08.050Z,52.38
2022-08-28T16:58:11.969Z,52.88
2022-08-28T17:01:17.109Z,52.93
2022-08-28T17:04:19.223Z,52.07
2022-08-28T17:07:21.752Z,52.74
2022-08-28T17:10:24.214Z,54.49
2022-08-28T17:13:26.213Z,54.61
2022-08-28T17:16:29.212Z,55.89
2022-08-28T17:19:31.176Z,56.56
2022-08-28T17:22:33.627Z,58.08
2022-08-28T17:25:35.763Z,58.48
2022-08-28T17:28:37.801Z,59.62
2022-08-28T17:31:40.177Z,60.69
2022-08-28T17:34:42.279Z,61.79
2022-08-28T17:37:45.301Z,62.14
2022-08-28T17:40:47.803Z,62.65
2022-08-28T17:43:49.846Z,63.48
2022-08-28T17:46:51.927Z,64.45
2022-08-28T17:49:54.027Z,64.92
2022-08-28T17:52:56.065Z,65.57
2022-08-28T17:55:58.274Z,66.67
2022-08-28T17:59:00.289Z,67.25
2022-08-28T18:02:02.343Z,67.21
2022-08-28T18:05:04.933Z,67.90
2022-08-28T18:08:08.172Z,67.87
2022-08-28T18:11:10.854Z,68.80
2022-08-28T18:14:12.922Z,68.88
2022-08-28T18:17:15.143Z,69.25
2022-08-28T18:20:18.070Z,69.37
2022-08-28T18:23:20.356Z,70.03
2022-08-28T18:26:22.402Z,70.54
2022-08-28T18:29:24.469Z,71.17
2022-08-28T18:32:27.420Z,71.69
2022-08-28T18:35:31.662Z,72.30
2022-08-28T18:38:34.280Z,73.21
2022-08-28T18:41:43.772Z,73.71
2022-08-28T18:44:46.400Z,74.39
2022-08-28T18:47:48.410Z,75.50
2022-08-28T18:50:50.461Z,75.49
2022-08-28T18:53:52.506Z,75.44
2022-08-28T18:56:57.358Z,76.05
2022-08-28T19:00:04.824Z,75.60
2022-08-28T19:03:06.954Z,75.82
2022-08-28T19:06:12.520Z,76.20
2022-08-28T19:09:20.440Z,75.41
2022-08-28T19:12:23.803Z,74.56
2022-08-28T19:15:25.812Z,74.35
2022-08-28T19:18:27.853Z,74.62
2022-08-28T19:21:30.245Z,74.86
2022-08-28T19:24:32.796Z,75.65
2022-08-28T19:27:34.981Z,75.43
2022-08-28T19:30:37.029Z,75.57
2022-08-28T19:33:39.131Z,75.82
2022-08-28T19:36:41.157Z,76.32
2022-08-28T19:39:48.525Z,76.63
2022-08-28T19:42:58.702Z,76.86
2022-08-28T19:46:07.936Z,77.34
2022-08-28T19:49:16.117Z,77.19
2022-08-28T19:52:18.149Z,77.22
2022-08-28T19:55:23.481Z,77.06
2022-08-28T19:58:25.869Z,77.03
2022-08-28T20:01:34.257Z,76.99
2022-08-28T20:04:36.324Z,77.95
2022-08-28T20:07:38.343Z,77.61
2022-08-28T20:10:41.515Z,78.48
2022-08-28T20:13:43.521Z,79.21
2022-08-28T20:16:47.913Z,79.91
2022-08-28T20:19:49.909Z,80.13
2022-08-28T20:22:53.935Z,80.53
2022-08-28T20:25:56.272Z,81.22
2022-08-28T20:28:58.284Z,81.73
2022-08-28T20:32:00.699Z,81.74
2022-08-28T20:35:05.916Z,82.09
2022-08-28T20:38:08.016Z,82.26
2022-08-28T20:41:13.535Z,82.56
2022-08-28T20:44:18.240Z,83.27
2022-08-28T20:47:20.253Z,83.48
2022-08-28T20:50:25.490Z,83.62
2022-08-28T20:53:37.340Z,84.00
2022-08-28T20:56:40.310Z,84.20
2022-08-28T20:59:44.213Z,84.44
2022-08-28T21:02:46.225Z,85.74
2022-08-28T21:05:48.994Z,86.28
2022-08-28T21:08:51.139Z,87.14
2022-08-28T21:11:53.171Z,87.90
2022-08-28T21:14:55.230Z,88.77
2022-08-28T21:17:57.834Z,89.46
2022-08-28T21:20:59.849Z,88.92
2022-08-28T21:24:05.022Z,89.13
2022-08-28T21:27:07.025Z,89.37
2022-08-28T21:30:13.947Z,89.67
2022-08-28T21:33:15.943Z,89.64
2022-08-28T21:36:18.840Z,89.65
2022-08-28T21:39:20.959Z,90.50
2022-08-28T21:42:23.019Z,90.89
2022-08-28T21:45:25.021Z,91.49
2022-08-28T21:48:27.502Z,91.96
2022-08-28T21:51:29.557Z,92.28
2022-08-28T21:54:31.756Z,92.14
2022-08-28T21:57:34.631Z,91.94
2022-08-28T22:00:36.640Z,91.68
2022-08-28T22:03:38.686Z,92.16
2022-08-28T22:06:40.782Z,92.70
2022-08-28T22:09:43.338Z,92.89
2022-08-28T22:12:45.380Z,92.71
2022-08-28T22:15:47.544Z,93.41
2022-08-28T22:18:50.148Z,93.42
2022-08-28T22:21:52.142Z,94.14
2022-08-28T22:24:54.163Z,93.58
2022-08-28T22:27:56.163Z,93.41
2022-08-28T22:30:58.346Z,93.45
2022-08-28T22:34:02.549Z,93.33
2022-08-28T22:37:04.606Z,93.12
2022-08-28T22:40:09.416Z,92.87
2022-08-28T22:43:12.644Z,92.31
2022-08-28T22:46:14.973Z,92.88
2022-08-28T22:49:17.072Z,92.96
2022-08-28T22:52:19.111Z,93.11
2022-08-28T22:55:22.117Z,94.13
2022-08-28T22:58:24.199Z,93.90
2022-08-28T23:01:26.593Z,94.01
2022-08-28T23:04:28.739Z,94.13
2022-08-28T23:07:30.811Z,93.94
2022-08-28T23:10:55.588Z,94.64
2022-08-28T23:13:54.804Z,95.11
2022-08-28T23:16:57.063Z,94.82
2022-08-28T23:19:59.158Z,94.85
2022-08-28T23:23:01.335Z,94.59
2022-08-28T23:26:04.025Z,94.54
2022-08-28T23:29:06.035Z,95.12
2022-08-28T23:32:08.114Z,95.75
2022-08-28T23:35:14.413Z,95.77
2022-08-28T23:38:16.467Z,96.24
2022-08-28T23:41:18.729Z,96.12
2022-08-28T23:44:21.229Z,96.26
2022-08-28T23:47:23.275Z,97.43
2022-08-28T23:50:25.560Z,96.65
2022-08-28T23:53:27.618Z,97.23
2022-08-28T23:56:31.171Z,97.29
2022-08-28T23:59:33.176Z,97.13
